sensor_id;sensor_type;location;lat;lon;timestamp;temperature;humidity
62573;DHT22;48626;51.678;5.806;2022-11-04T00:01:42;11.60;99.90
62573;DHT22;48626;51.678;5.806;2022-11-04T00:04:09;11.60;99.90
62573;DHT22;48626;51.678;5.806;2022-11-04T00:06:36;11.60;99.90
62573;DHT22;48626;51.678;5.806;2022-11-04T00:09:03;11.60;99.90
62573;DHT22;48626;51.678;5.806;2022-11-04T00:11:29;11.50;99.90
62573;DHT22;48626;51.678;5.806;2022-11-04T00:14:14;11.50;99.90
62573;DHT22;48626;51.678;5.806;2022-11-04T00:16:40;11.40;99.90
62573;DHT22;48626;51.678;5.806;2022-11-04T00:19:24;11.40;99.90
62573;DHT22;48626;51.678;5.806;2022-11-04T00:21:51;11.30;99.90
62573;DHT22;48626;51.678;5.806;2022-11-04T00:24:35;11.30;99.90
62573;DHT22;48626;51.678;5.806;2022-11-04T00:27:20;11.20;99.90
62573;DHT22;48626;51.678;5.806;2022-11-04T00:30:08;11.10;99.90
62573;DHT22;48626;51.678;5.806;2022-11-04T00:32:34;11.00;99.90
62573;DHT22;48626;51.678;5.806;2022-11-04T00:35:19;10.90;99.90
62573;DHT22;48626;51.678;5.806;2022-11-04T00:37:45;10.90;99.90
62573;DHT22;48626;51.678;5.806;2022-11-04T00:40:14;10.80;99.90
62573;DHT22;48626;51.678;5.806;2022-11-04T00:42:43;10.80;99.90
62573;DHT22;48626;51.678;5.806;2022-11-04T00:45:09;10.70;99.90
62573;DHT22;48626;51.678;5.806;2022-11-04T00:47:34;10.70;99.90
62573;DHT22;48626;51.678;5.806;2022-11-04T00:50:00;10.70;99.90
62573;DHT22;48626;51.678;5.806;2022-11-04T00:52:26;10.60;99.90
62573;DHT22;48626;51.678;5.806;2022-11-04T00:54:51;10.60;99.90
62573;DHT22;48626;51.678;5.806;2022-11-04T00:57:17;10.60;99.90
62573;DHT22;48626;51.678;5.806;2022-11-04T00:59:42;10.50;99.90
62573;DHT22;48626;51.678;5.806;2022-11-04T01:02:10;10.40;99.90
62573;DHT22;48626;51.678;5.806;2022-11-04T01:04:37;10.30;99.90
62573;DHT22;48626;51.678;5.806;2022-11-04T01:07:03;10.20;99.90
62573;DHT22;48626;51.678;5.806;2022-11-04T01:09:28;10.10;99.90
62573;DHT22;48626;51.678;5.806;2022-11-04T01:11:54;10.10;99.90
62573;DHT22;48626;51.678;5.806;2022-11-04T01:14:20;10.00;99.90
62573;DHT22;48626;51.678;5.806;2022-11-04T01:16:48;9.90;99.90
62573;DHT22;48626;51.678;5.806;2022-11-04T01:19:15;9.90;99.90
62573;DHT22;48626;51.678;5.806;2022-11-04T01:21:40;9.90;99.90
62573;DHT22;48626;51.678;5.806;2022-11-04T01:24:06;9.90;99.90
62573;DHT22;48626;51.678;5.806;2022-11-04T01:26:32;9.80;99.90
62573;DHT22;48626;51.678;5.806;2022-11-04T01:28:58;9.80;99.90
62573;DHT22;48626;51.678;5.806;2022-11-04T01:31:30;9.90;99.90
62573;DHT22;48626;51.678;5.806;2022-11-04T01:33:56;9.90;99.90
62573;DHT22;48626;51.678;5.806;2022-11-04T01:36:23;9.90;99.90
62573;DHT22;48626;51.678;5.806;2022-11-04T01:38:49;9.90;99.90
62573;DHT22;48626;51.678;5.806;2022-11-04T01:41:18;10.00;99.90
62573;DHT22;48626;51.678;5.806;2022-11-04T01:43:52;10.00;99.90
62573;DHT22;48626;51.678;5.806;2022-11-04T01:46:37;10.10;99.90
62573;DHT22;48626;51.678;5.806;2022-11-04T01:51:48;10.20;99.90
62573;DHT22;48626;51.678;5.806;2022-11-04T01:54:16;10.30;99.90
62573;DHT22;48626;51.678;5.806;2022-11-04T01:56:44;10.40;99.90
62573;DHT22;48626;51.678;5.806;2022-11-04T01:59:33;10.50;99.90
62573;DHT22;48626;51.678;5.806;2022-11-04T02:01:59;10.50;99.90
62573;DHT22;48626;51.678;5.806;2022-11-04T02:04:25;10.60;99.90
62573;DHT22;48626;51.678;5.806;2022-11-04T02:07:10;10.70;99.90
62573;DHT22;48626;51.678;5.806;2022-11-04T02:09:37;10.60;99.90
62573;DHT22;48626;51.678;5.806;2022-11-04T02:12:04;10.50;99.90
62573;DHT22;48626;51.678;5.806;2022-11-04T02:14:49;10.50;99.90
62573;DHT22;48626;51.678;5.806;2022-11-04T02:27:37;10.30;99.90
62573;DHT22;48626;51.678;5.806;2022-11-04T02:30:09;10.20;99.90
62573;DHT22;48626;51.678;5.806;2022-11-04T02:35:39;10.10;99.90
62573;DHT22;48626;51.678;5.806;2022-11-04T02:43:35;9.90;99.90
62573;DHT22;48626;51.678;5.806;2022-11-04T02:46:05;9.90;99.90
62573;DHT22;48626;51.678;5.806;2022-11-04T02:48:37;9.80;99.90
62573;DHT22;48626;51.678;5.806;2022-11-04T02:51:30;9.80;99.90
62573;DHT22;48626;51.678;5.806;2022-11-04T02:56:27;9.70;99.90
62573;DHT22;48626;51.678;5.806;2022-11-04T02:58:57;9.70;99.90
62573;DHT22;48626;51.678;5.806;2022-11-04T03:01:29;9.60;99.90
62573;DHT22;48626;51.678;5.806;2022-11-04T03:04:08;9.60;99.90
62573;DHT22;48626;51.678;5.806;2022-11-04T03:06:36;9.60;99.90
62573;DHT22;48626;51.678;5.806;2022-11-04T03:09:03;9.50;99.90
62573;DHT22;48626;51.678;5.806;2022-11-04T03:11:29;9.50;99.90
62573;DHT22;48626;51.678;5.806;2022-11-04T03:14:09;9.40;99.90
62573;DHT22;48626;51.678;5.806;2022-11-04T03:16:45;9.40;99.90
62573;DHT22;48626;51.678;5.806;2022-11-04T03:19:15;9.40;99.90
62573;DHT22;48626;51.678;5.806;2022-11-04T03:22:04;9.30;99.90
62573;DHT22;48626;51.678;5.806;2022-11-04T03:24:31;9.30;99.90
62573;DHT22;48626;51.678;5.806;2022-11-04T03:27:18;9.30;99.90
62573;DHT22;48626;51.678;5.806;2022-11-04T03:29:48;9.30;99.90
62573;DHT22;48626;51.678;5.806;2022-11-04T03:35:05;9.20;99.90
62573;DHT22;48626;51.678;5.806;2022-11-04T03:37:32;9.20;99.90
62573;DHT22;48626;51.678;5.806;2022-11-04T03:39:58;9.20;99.90
62573;DHT22;48626;51.678;5.806;2022-11-04T03:42:25;9.10;99.90
62573;DHT22;48626;51.678;5.806;2022-11-04T03:44:55;9.10;99.90
62573;DHT22;48626;51.678;5.806;2022-11-04T03:47:22;9.10;99.90
62573;DHT22;48626;51.678;5.806;2022-11-04T03:49:51;9.10;99.90
62573;DHT22;48626;51.678;5.806;2022-11-04T03:52:18;9.00;99.90
62573;DHT22;48626;51.678;5.806;2022-11-04T03:54:44;9.00;99.90
62573;DHT22;48626;51.678;5.806;2022-11-04T03:57:20;9.00;99.90
62573;DHT22;48626;51.678;5.806;2022-11-04T04:02:35;8.90;99.90
62573;DHT22;48626;51.678;5.806;2022-11-04T04:05:52;8.90;99.90
62573;DHT22;48626;51.678;5.806;2022-11-04T04:08:09;8.90;99.90
62573;DHT22;48626;51.678;5.806;2022-11-04T04:13:35;8.80;99.90
62573;DHT22;48626;51.678;5.806;2022-11-04T04:18:41;8.80;99.90
62573;DHT22;48626;51.678;5.806;2022-11-04T04:21:19;8.80;99.90
62573;DHT22;48626;51.678;5.806;2022-11-04T04:23:48;8.80;99.90
62573;DHT22;48626;51.678;5.806;2022-11-04T04:26:33;8.80;99.90
62573;DHT22;48626;51.678;5.806;2022-11-04T04:29:17;8.80;99.90
62573;DHT22;48626;51.678;5.806;2022-11-04T04:31:46;8.80;99.90
62573;DHT22;48626;51.678;5.806;2022-11-04T04:34:28;8.80;99.90
62573;DHT22;48626;51.678;5.806;2022-11-04T04:39:42;8.80;99.90
62573;DHT22;48626;51.678;5.806;2022-11-04T04:42:33;8.80;99.90
62573;DHT22;48626;51.678;5.806;2022-11-04T04:45:27;8.70;99.90
62573;DHT22;48626;51.678;5.806;2022-11-04T04:47:55;8.70;99.90
62573;DHT22;48626;51.678;5.806;2022-11-04T04:50:22;8.60;99.90
62573;DHT22;48626;51.678;5.806;2022-11-04T04:52:52;8.60;99.90
62573;DHT22;48626;51.678;5.806;2022-11-04T04:55:19;8.50;99.90
62573;DHT22;48626;51.678;5.806;2022-11-04T04:57:45;8.50;99.90
62573;DHT22;48626;51.678;5.806;2022-11-04T05:00:16;8.50;99.90
62573;DHT22;48626;51.678;5.806;2022-11-04T05:02:42;8.50;99.90
62573;DHT22;48626;51.678;5.806;2022-11-04T05:05:09;8.40;99.90
62573;DHT22;48626;51.678;5.806;2022-11-04T05:07:35;8.40;99.90
62573;DHT22;48626;51.678;5.806;2022-11-04T05:10:01;8.30;99.90
62573;DHT22;48626;51.678;5.806;2022-11-04T05:12:26;8.30;99.90
62573;DHT22;48626;51.678;5.806;2022-11-04T05:15:12;8.30;99.90
62573;DHT22;48626;51.678;5.806;2022-11-04T05:17:38;8.20;99.90
62573;DHT22;48626;51.678;5.806;2022-11-04T05:20:04;8.20;99.90
62573;DHT22;48626;51.678;5.806;2022-11-04T05:22:30;8.20;99.90
62573;DHT22;48626;51.678;5.806;2022-11-04T05:24:56;8.20;99.90
62573;DHT22;48626;51.678;5.806;2022-11-04T05:27:21;8.10;99.90
62573;DHT22;48626;51.678;5.806;2022-11-04T05:29:47;8.10;99.90
62573;DHT22;48626;51.678;5.806;2022-11-04T05:32:12;8.10;99.90
62573;DHT22;48626;51.678;5.806;2022-11-04T05:34:38;8.00;99.90
62573;DHT22;48626;51.678;5.806;2022-11-04T05:37:04;8.00;99.90
62573;DHT22;48626;51.678;5.806;2022-11-04T05:39:29;8.00;99.90
62573;DHT22;48626;51.678;5.806;2022-11-04T05:41:55;7.90;99.90
62573;DHT22;48626;51.678;5.806;2022-11-04T05:44:20;7.90;99.90
62573;DHT22;48626;51.678;5.806;2022-11-04T05:46:46;7.90;99.90
62573;DHT22;48626;51.678;5.806;2022-11-04T05:49:12;7.80;99.90
62573;DHT22;48626;51.678;5.806;2022-11-04T05:51:37;7.80;99.90
62573;DHT22;48626;51.678;5.806;2022-11-04T05:54:03;7.80;99.90
62573;DHT22;48626;51.678;5.806;2022-11-04T05:56:28;7.70;99.90
62573;DHT22;48626;51.678;5.806;2022-11-04T05:58:54;7.70;99.90
62573;DHT22;48626;51.678;5.806;2022-11-04T06:01:33;7.70;99.90
62573;DHT22;48626;51.678;5.806;2022-11-04T06:04:00;7.80;99.90
62573;DHT22;48626;51.678;5.806;2022-11-04T06:06:29;7.80;99.90
62573;DHT22;48626;51.678;5.806;2022-11-04T06:08:55;7.80;99.90
62573;DHT22;48626;51.678;5.806;2022-11-04T06:11:21;7.90;99.90
62573;DHT22;48626;51.678;5.806;2022-11-04T06:13:47;8.00;99.90
62573;DHT22;48626;51.678;5.806;2022-11-04T06:16:13;8.00;99.90
62573;DHT22;48626;51.678;5.806;2022-11-04T06:18:39;8.00;99.90
62573;DHT22;48626;51.678;5.806;2022-11-04T06:21:17;8.00;99.90
62573;DHT22;48626;51.678;5.806;2022-11-04T06:23:44;8.10;99.90
62573;DHT22;48626;51.678;5.806;2022-11-04T06:26:11;8.10;99.90
62573;DHT22;48626;51.678;5.806;2022-11-04T06:28:37;8.10;99.90
62573;DHT22;48626;51.678;5.806;2022-11-04T06:31:05;8.10;99.90
62573;DHT22;48626;51.678;5.806;2022-11-04T06:33:31;8.20;99.90
62573;DHT22;48626;51.678;5.806;2022-11-04T06:35:58;8.20;99.90
62573;DHT22;48626;51.678;5.806;2022-11-04T06:38:24;8.20;99.90
62573;DHT22;48626;51.678;5.806;2022-11-04T06:40:49;8.30;99.90
62573;DHT22;48626;51.678;5.806;2022-11-04T06:43:15;8.30;99.90
62573;DHT22;48626;51.678;5.806;2022-11-04T06:45:41;8.20;99.90
62573;DHT22;48626;51.678;5.806;2022-11-04T06:48:06;8.30;99.90
62573;DHT22;48626;51.678;5.806;2022-11-04T06:50:32;8.20;99.90
62573;DHT22;48626;51.678;5.806;2022-11-04T06:52:58;8.30;99.90
62573;DHT22;48626;51.678;5.806;2022-11-04T06:55:23;8.30;99.90
62573;DHT22;48626;51.678;5.806;2022-11-04T06:57:49;8.30;99.90
62573;DHT22;48626;51.678;5.806;2022-11-04T07:00:15;8.40;99.90
62573;DHT22;48626;51.678;5.806;2022-11-04T07:02:41;8.40;99.90
62573;DHT22;48626;51.678;5.806;2022-11-04T07:05:07;8.40;99.90
62573;DHT22;48626;51.678;5.806;2022-11-04T07:07:33;8.50;99.90
62573;DHT22;48626;51.678;5.806;2022-11-04T07:09:59;8.50;99.90
62573;DHT22;48626;51.678;5.806;2022-11-04T07:12:24;8.60;99.90
62573;DHT22;48626;51.678;5.806;2022-11-04T07:14:50;8.70;99.90
62573;DHT22;48626;51.678;5.806;2022-11-04T07:17:16;8.70;99.90
62573;DHT22;48626;51.678;5.806;2022-11-04T07:19:42;8.80;99.90
62573;DHT22;48626;51.678;5.806;2022-11-04T07:22:07;8.90;99.90
62573;DHT22;48626;51.678;5.806;2022-11-04T07:24:34;9.00;99.90
62573;DHT22;48626;51.678;5.806;2022-11-04T07:26:59;9.10;99.90
62573;DHT22;48626;51.678;5.806;2022-11-04T07:29:25;9.10;99.90
62573;DHT22;48626;51.678;5.806;2022-11-04T07:31:51;9.20;99.90
62573;DHT22;48626;51.678;5.806;2022-11-04T07:34:18;9.30;99.90
62573;DHT22;48626;51.678;5.806;2022-11-04T07:36:44;9.40;99.90
62573;DHT22;48626;51.678;5.806;2022-11-04T07:39:09;9.50;99.90
62573;DHT22;48626;51.678;5.806;2022-11-04T07:41:35;9.50;99.90
62573;DHT22;48626;51.678;5.806;2022-11-04T07:44:01;9.60;99.90
62573;DHT22;48626;51.678;5.806;2022-11-04T07:46:33;9.70;99.90
62573;DHT22;48626;51.678;5.806;2022-11-04T07:48:58;9.80;99.90
62573;DHT22;48626;51.678;5.806;2022-11-04T07:51:25;9.80;99.90
62573;DHT22;48626;51.678;5.806;2022-11-04T07:53:51;9.90;99.90
62573;DHT22;48626;51.678;5.806;2022-11-04T07:56:17;10.00;99.90
62573;DHT22;48626;51.678;5.806;2022-11-04T07:58:44;10.10;99.90
62573;DHT22;48626;51.678;5.806;2022-11-04T08:01:13;10.20;99.90
62573;DHT22;48626;51.678;5.806;2022-11-04T08:03:39;10.30;99.90
62573;DHT22;48626;51.678;5.806;2022-11-04T08:06:06;10.50;99.90
62573;DHT22;48626;51.678;5.806;2022-11-04T08:08:32;10.40;99.90
62573;DHT22;48626;51.678;5.806;2022-11-04T08:11:04;10.40;99.90
62573;DHT22;48626;51.678;5.806;2022-11-04T08:13:32;10.50;99.90
62573;DHT22;48626;51.678;5.806;2022-11-04T08:16:03;10.50;99.90
62573;DHT22;48626;51.678;5.806;2022-11-04T08:18:30;10.60;99.90
62573;DHT22;48626;51.678;5.806;2022-11-04T08:20:56;10.60;99.90
62573;DHT22;48626;51.678;5.806;2022-11-04T08:23:22;10.70;99.90
62573;DHT22;48626;51.678;5.806;2022-11-04T08:25:47;10.70;99.90
62573;DHT22;48626;51.678;5.806;2022-11-04T08:28:13;10.90;99.90
62573;DHT22;48626;51.678;5.806;2022-11-04T08:31:16;11.00;99.90
62573;DHT22;48626;51.678;5.806;2022-11-04T08:33:42;11.10;99.90
62573;DHT22;48626;51.678;5.806;2022-11-04T08:36:15;11.10;99.90
62573;DHT22;48626;51.678;5.806;2022-11-04T08:38:41;11.20;99.90
62573;DHT22;48626;51.678;5.806;2022-11-04T08:41:08;11.20;99.90
62573;DHT22;48626;51.678;5.806;2022-11-04T08:43:34;11.20;99.90
62573;DHT22;48626;51.678;5.806;2022-11-04T08:46:01;11.20;99.90
62573;DHT22;48626;51.678;5.806;2022-11-04T08:48:28;11.20;99.90
62573;DHT22;48626;51.678;5.806;2022-11-04T08:50:56;11.20;99.90
62573;DHT22;48626;51.678;5.806;2022-11-04T08:53:26;11.20;99.90
62573;DHT22;48626;51.678;5.806;2022-11-04T08:55:52;11.20;99.90
62573;DHT22;48626;51.678;5.806;2022-11-04T08:58:18;11.30;99.90
62573;DHT22;48626;51.678;5.806;2022-11-04T09:00:44;11.40;99.90
62573;DHT22;48626;51.678;5.806;2022-11-04T09:03:10;11.40;99.90
62573;DHT22;48626;51.678;5.806;2022-11-04T09:05:37;11.50;99.90
62573;DHT22;48626;51.678;5.806;2022-11-04T09:08:10;11.40;99.90
62573;DHT22;48626;51.678;5.806;2022-11-04T09:10:40;11.50;99.90
62573;DHT22;48626;51.678;5.806;2022-11-04T09:13:07;11.60;99.90
62573;DHT22;48626;51.678;5.806;2022-11-04T09:15:35;11.70;99.90
62573;DHT22;48626;51.678;5.806;2022-11-04T09:18:00;11.80;99.90
62573;DHT22;48626;51.678;5.806;2022-11-04T09:20:27;11.90;99.90
62573;DHT22;48626;51.678;5.806;2022-11-04T09:22:54;12.00;99.90
62573;DHT22;48626;51.678;5.806;2022-11-04T09:25:19;12.10;99.90
62573;DHT22;48626;51.678;5.806;2022-11-04T09:27:45;12.20;99.90
62573;DHT22;48626;51.678;5.806;2022-11-04T09:30:11;12.30;99.90
62573;DHT22;48626;51.678;5.806;2022-11-04T09:32:37;12.30;99.90
62573;DHT22;48626;51.678;5.806;2022-11-04T09:35:02;12.40;99.90
62573;DHT22;48626;51.678;5.806;2022-11-04T09:37:29;12.50;99.90
62573;DHT22;48626;51.678;5.806;2022-11-04T09:39:55;12.60;99.90
62573;DHT22;48626;51.678;5.806;2022-11-04T09:45:18;12.60;99.90
62573;DHT22;48626;51.678;5.806;2022-11-04T09:47:48;12.70;99.90
62573;DHT22;48626;51.678;5.806;2022-11-04T09:50:20;12.70;99.90
62573;DHT22;48626;51.678;5.806;2022-11-04T09:52:53;12.70;99.90
62573;DHT22;48626;51.678;5.806;2022-11-04T09:57:53;12.70;99.90
62573;DHT22;48626;51.678;5.806;2022-11-04T10:00:20;12.70;99.90
62573;DHT22;48626;51.678;5.806;2022-11-04T10:02:56;12.60;99.90
62573;DHT22;48626;51.678;5.806;2022-11-04T10:13:20;12.70;99.90
62573;DHT22;48626;51.678;5.806;2022-11-04T10:23:42;12.60;99.90
62573;DHT22;48626;51.678;5.806;2022-11-04T10:29:00;12.80;99.90
62573;DHT22;48626;51.678;5.806;2022-11-04T10:31:27;13.00;99.90
62573;DHT22;48626;51.678;5.806;2022-11-04T10:33:58;13.10;99.90
62573;DHT22;48626;51.678;5.806;2022-11-04T10:36:24;13.30;99.90
62573;DHT22;48626;51.678;5.806;2022-11-04T10:38:53;13.50;99.90
62573;DHT22;48626;51.678;5.806;2022-11-04T10:43:49;14.20;99.90
62573;DHT22;48626;51.678;5.806;2022-11-04T10:52:10;16.20;99.90
62573;DHT22;48626;51.678;5.806;2022-11-04T10:54:44;16.40;99.90
62573;DHT22;48626;51.678;5.806;2022-11-04T10:57:11;16.90;99.90
62573;DHT22;48626;51.678;5.806;2022-11-04T11:00:00;16.90;99.90
62573;DHT22;48626;51.678;5.806;2022-11-04T11:05:31;17.60;96.60
62573;DHT22;48626;51.678;5.806;2022-11-04T11:07:57;17.40;96.30
62573;DHT22;48626;51.678;5.806;2022-11-04T11:10:24;17.10;96.70
62573;DHT22;48626;51.678;5.806;2022-11-04T11:15:32;16.40;96.40
62573;DHT22;48626;51.678;5.806;2022-11-04T11:20:34;16.40;95.70
62573;DHT22;48626;51.678;5.806;2022-11-04T11:23:03;16.50;96.60
62573;DHT22;48626;51.678;5.806;2022-11-04T11:25:43;16.30;94.30
62573;DHT22;48626;51.678;5.806;2022-11-04T11:28:22;16.10;96.10
62573;DHT22;48626;51.678;5.806;2022-11-04T11:33:23;15.50;96.30
62573;DHT22;48626;51.678;5.806;2022-11-04T11:36:01;15.40;97.00
62573;DHT22;48626;51.678;5.806;2022-11-04T11:38:30;15.30;96.60
62573;DHT22;48626;51.678;5.806;2022-11-04T11:41:13;15.10;97.40
62573;DHT22;48626;51.678;5.806;2022-11-04T11:43:49;15.10;97.90
62573;DHT22;48626;51.678;5.806;2022-11-04T11:46:22;15.10;98.40
62573;DHT22;48626;51.678;5.806;2022-11-04T11:48:51;15.20;97.30
62573;DHT22;48626;51.678;5.806;2022-11-04T11:51:32;15.30;97.60
62573;DHT22;48626;51.678;5.806;2022-11-04T11:54:35;15.50;98.10
62573;DHT22;48626;51.678;5.806;2022-11-04T11:57:21;15.70;96.40
62573;DHT22;48626;51.678;5.806;2022-11-04T11:59:57;15.80;97.20
62573;DHT22;48626;51.678;5.806;2022-11-04T12:03:18;15.80;95.80
62573;DHT22;48626;51.678;5.806;2022-11-04T12:08:39;16.20;94.20
62573;DHT22;48626;51.678;5.806;2022-11-04T12:11:15;16.10;95.70
62573;DHT22;48626;51.678;5.806;2022-11-04T12:13:52;15.80;95.20
62573;DHT22;48626;51.678;5.806;2022-11-04T12:19:19;15.30;94.90
62573;DHT22;48626;51.678;5.806;2022-11-04T12:22:10;15.20;95.10
62573;DHT22;48626;51.678;5.806;2022-11-04T12:30:11;14.90;97.10
62573;DHT22;48626;51.678;5.806;2022-11-04T12:33:10;14.90;97.60
62573;DHT22;48626;51.678;5.806;2022-11-04T12:38:39;15.30;97.40
62573;DHT22;48626;51.678;5.806;2022-11-04T12:41:37;15.50;97.80
62573;DHT22;48626;51.678;5.806;2022-11-04T12:47:23;15.40;96.10
62573;DHT22;48626;51.678;5.806;2022-11-04T12:58:32;15.00;96.80
62573;DHT22;48626;51.678;5.806;2022-11-04T13:01:10;14.80;96.40
62573;DHT22;48626;51.678;5.806;2022-11-04T13:03:58;14.70;96.40
62573;DHT22;48626;51.678;5.806;2022-11-04T13:08:59;14.60;96.50
62573;DHT22;48626;51.678;5.806;2022-11-04T13:11:29;14.60;96.80
62573;DHT22;48626;51.678;5.806;2022-11-04T13:14:12;14.60;96.80
62573;DHT22;48626;51.678;5.806;2022-11-04T13:16:42;14.60;96.80
62573;DHT22;48626;51.678;5.806;2022-11-04T13:19:32;14.60;96.90
62573;DHT22;48626;51.678;5.806;2022-11-04T13:22:05;14.70;97.00
62573;DHT22;48626;51.678;5.806;2022-11-04T13:24:40;14.70;96.30
62573;DHT22;48626;51.678;5.806;2022-11-04T13:27:34;14.70;95.90
62573;DHT22;48626;51.678;5.806;2022-11-04T13:30:22;14.80;96.60
62573;DHT22;48626;51.678;5.806;2022-11-04T13:35:38;14.90;95.70
62573;DHT22;48626;51.678;5.806;2022-11-04T13:38:14;14.90;95.00
62573;DHT22;48626;51.678;5.806;2022-11-04T13:41:02;14.80;95.20
62573;DHT22;48626;51.678;5.806;2022-11-04T13:43:33;14.80;94.40
62573;DHT22;48626;51.678;5.806;2022-11-04T13:46:50;14.60;94.60
62573;DHT22;48626;51.678;5.806;2022-11-04T13:51:45;14.50;95.00
62573;DHT22;48626;51.678;5.806;2022-11-04T13:57:21;14.40;95.40
62573;DHT22;48626;51.678;5.806;2022-11-04T14:02:50;14.40;95.50
62573;DHT22;48626;51.678;5.806;2022-11-04T14:18:37;14.20;95.00
62573;DHT22;48626;51.678;5.806;2022-11-04T14:23:30;14.10;95.00
62573;DHT22;48626;51.678;5.806;2022-11-04T14:26:02;14.00;94.90
62573;DHT22;48626;51.678;5.806;2022-11-04T14:28:29;14.00;95.50
62573;DHT22;48626;51.678;5.806;2022-11-04T14:31:06;13.90;95.50
62573;DHT22;48626;51.678;5.806;2022-11-04T14:33:37;13.80;95.50
62573;DHT22;48626;51.678;5.806;2022-11-04T14:36:21;13.90;95.70
62573;DHT22;48626;51.678;5.806;2022-11-04T14:38:59;13.80;95.90
62573;DHT22;48626;51.678;5.806;2022-11-04T14:41:53;13.80;95.90
62573;DHT22;48626;51.678;5.806;2022-11-04T14:47:23;13.70;96.00
62573;DHT22;48626;51.678;5.806;2022-11-04T14:49:59;13.60;96.20
62573;DHT22;48626;51.678;5.806;2022-11-04T14:52:34;13.60;96.50
62573;DHT22;48626;51.678;5.806;2022-11-04T14:57:43;13.50;96.60
62573;DHT22;48626;51.678;5.806;2022-11-04T15:05:31;13.40;96.80
62573;DHT22;48626;51.678;5.806;2022-11-04T15:08:02;13.40;96.90
62573;DHT22;48626;51.678;5.806;2022-11-04T15:10:28;13.40;97.00
62573;DHT22;48626;51.678;5.806;2022-11-04T15:12:59;13.40;97.10
62573;DHT22;48626;51.678;5.806;2022-11-04T15:15:37;13.40;97.10
62573;DHT22;48626;51.678;5.806;2022-11-04T15:18:12;13.30;97.20
62573;DHT22;48626;51.678;5.806;2022-11-04T15:20:52;13.30;97.30
62573;DHT22;48626;51.678;5.806;2022-11-04T15:23:29;13.30;97.30
62573;DHT22;48626;51.678;5.806;2022-11-04T15:25:57;13.30;97.40
62573;DHT22;48626;51.678;5.806;2022-11-04T15:28:28;13.20;97.60
62573;DHT22;48626;51.678;5.806;2022-11-04T15:30:59;13.20;97.70
62573;DHT22;48626;51.678;5.806;2022-11-04T15:33:25;13.20;97.80
62573;DHT22;48626;51.678;5.806;2022-11-04T15:35:52;13.20;97.90
62573;DHT22;48626;51.678;5.806;2022-11-04T15:38:19;13.20;98.00
62573;DHT22;48626;51.678;5.806;2022-11-04T15:40:45;13.20;98.10
62573;DHT22;48626;51.678;5.806;2022-11-04T15:43:13;13.20;98.10
62573;DHT22;48626;51.678;5.806;2022-11-04T15:45:50;13.10;98.10
62573;DHT22;48626;51.678;5.806;2022-11-04T15:53:25;13.10;98.30
62573;DHT22;48626;51.678;5.806;2022-11-04T15:55:51;13.10;98.40
62573;DHT22;48626;51.678;5.806;2022-11-04T15:58:17;13.00;98.40
62573;DHT22;48626;51.678;5.806;2022-11-04T16:00:51;13.00;98.50
62573;DHT22;48626;51.678;5.806;2022-11-04T16:03:18;13.00;98.60
62573;DHT22;48626;51.678;5.806;2022-11-04T16:06:00;12.90;98.00
62573;DHT22;48626;51.678;5.806;2022-11-04T16:08:28;12.90;97.80
62573;DHT22;48626;51.678;5.806;2022-11-04T16:11:15;12.80;97.10
62573;DHT22;48626;51.678;5.806;2022-11-04T16:13:41;12.70;96.20
62573;DHT22;48626;51.678;5.806;2022-11-04T16:16:24;12.60;96.50
62573;DHT22;48626;51.678;5.806;2022-11-04T16:18:56;12.60;96.20
62573;DHT22;48626;51.678;5.806;2022-11-04T16:21:33;12.60;96.00
62573;DHT22;48626;51.678;5.806;2022-11-04T16:26:35;12.50;95.80
62573;DHT22;48626;51.678;5.806;2022-11-04T16:29:06;12.40;95.60
62573;DHT22;48626;51.678;5.806;2022-11-04T16:31:34;12.40;95.60
62573;DHT22;48626;51.678;5.806;2022-11-04T16:34:00;12.30;95.80
62573;DHT22;48626;51.678;5.806;2022-11-04T16:36:26;12.30;95.90
62573;DHT22;48626;51.678;5.806;2022-11-04T16:38:57;12.20;95.90
62573;DHT22;48626;51.678;5.806;2022-11-04T16:41:26;12.20;95.90
62573;DHT22;48626;51.678;5.806;2022-11-04T16:43:53;12.10;95.90
62573;DHT22;48626;51.678;5.806;2022-11-04T16:46:19;12.00;95.90
62573;DHT22;48626;51.678;5.806;2022-11-04T16:48:46;12.00;95.90
62573;DHT22;48626;51.678;5.806;2022-11-04T16:51:18;11.90;95.80
62573;DHT22;48626;51.678;5.806;2022-11-04T16:53:52;11.90;95.90
62573;DHT22;48626;51.678;5.806;2022-11-04T16:56:20;11.90;95.90
62573;DHT22;48626;51.678;5.806;2022-11-04T16:58:46;11.90;96.00
62573;DHT22;48626;51.678;5.806;2022-11-04T17:01:13;11.90;96.00
62573;DHT22;48626;51.678;5.806;2022-11-04T17:03:40;11.90;95.90
62573;DHT22;48626;51.678;5.806;2022-11-04T17:06:09;11.90;96.00
62573;DHT22;48626;51.678;5.806;2022-11-04T17:08:35;11.80;96.10
62573;DHT22;48626;51.678;5.806;2022-11-04T17:11:01;11.90;96.20
62573;DHT22;48626;51.678;5.806;2022-11-04T17:13:26;11.90;96.30
62573;DHT22;48626;51.678;5.806;2022-11-04T17:15:52;11.90;96.30
62573;DHT22;48626;51.678;5.806;2022-11-04T17:18:19;11.90;96.40
62573;DHT22;48626;51.678;5.806;2022-11-04T17:20:48;11.80;96.50
62573;DHT22;48626;51.678;5.806;2022-11-04T17:23:14;11.80;96.40
62573;DHT22;48626;51.678;5.806;2022-11-04T17:25:40;11.80;96.50
62573;DHT22;48626;51.678;5.806;2022-11-04T17:28:06;11.80;96.60
62573;DHT22;48626;51.678;5.806;2022-11-04T17:30:32;11.80;96.70
62573;DHT22;48626;51.678;5.806;2022-11-04T17:32:57;11.70;97.20
62573;DHT22;48626;51.678;5.806;2022-11-04T17:35:24;11.70;96.70
62573;DHT22;48626;51.678;5.806;2022-11-04T17:37:51;11.70;96.80
62573;DHT22;48626;51.678;5.806;2022-11-04T17:40:18;11.60;96.80
62573;DHT22;48626;51.678;5.806;2022-11-04T17:42:44;11.60;96.80
62573;DHT22;48626;51.678;5.806;2022-11-04T17:45:29;11.50;96.80
62573;DHT22;48626;51.678;5.806;2022-11-04T17:47:54;11.40;96.80
62573;DHT22;48626;51.678;5.806;2022-11-04T17:50:20;11.40;97.00
62573;DHT22;48626;51.678;5.806;2022-11-04T17:52:46;11.30;97.10
62573;DHT22;48626;51.678;5.806;2022-11-04T17:55:12;11.20;97.30
62573;DHT22;48626;51.678;5.806;2022-11-04T17:57:38;11.20;97.40
62573;DHT22;48626;51.678;5.806;2022-11-04T18:00:05;11.20;97.70
62573;DHT22;48626;51.678;5.806;2022-11-04T18:02:33;11.10;97.80
62573;DHT22;48626;51.678;5.806;2022-11-04T18:04:58;11.10;97.90
62573;DHT22;48626;51.678;5.806;2022-11-04T18:07:29;11.10;98.10
62573;DHT22;48626;51.678;5.806;2022-11-04T18:09:55;11.10;98.20
62573;DHT22;48626;51.678;5.806;2022-11-04T18:12:21;11.10;98.30
62573;DHT22;48626;51.678;5.806;2022-11-04T18:15:09;11.00;98.40
62573;DHT22;48626;51.678;5.806;2022-11-04T18:17:40;11.00;98.50
62573;DHT22;48626;51.678;5.806;2022-11-04T18:20:06;11.00;98.70
62573;DHT22;48626;51.678;5.806;2022-11-04T18:22:36;11.00;98.70
62573;DHT22;48626;51.678;5.806;2022-11-04T18:25:02;10.90;98.80
62573;DHT22;48626;51.678;5.806;2022-11-04T18:27:28;10.90;98.90
62573;DHT22;48626;51.678;5.806;2022-11-04T18:29:53;10.80;98.90
62573;DHT22;48626;51.678;5.806;2022-11-04T18:32:19;10.80;99.00